Time;durP1;ratioP1;P1;durP2;ratioP2;P2;SDS_P1;SDS_P2;PMS_P1;PMS_P2;Temp;Humidity;BMP_temperature;BMP_pressure;BME280_temperature;BME280_humidity;BME280_pressure;Samples;Min_cycle;Max_cycle;Signal;HPM_P1;HPM_P2
2021/07/05 00:01:20;;;;;;;11.35;6.78;;;;;;;15.08;80.49;94591.84;5087775;28;20501;-71
2021/07/05 00:03:47;;;;;;;8.90;5.90;;;;;;;14.68;81.67;94585.59;5088609;28;20395;-71
2021/07/05 00:06:14;;;;;;;12.75;6.80;;;;;;;14.49;82.39;94581.88;5086906;28;20050;-71
2021/07/05 00:08:41;;;;;;;12.55;6.70;;;;;;;14.63;81.49;94598.69;5087741;28;20040;-71
2021/07/05 00:11:08;;;;;;;11.68;6.70;;;;;;;14.63;80.87;94590.81;5090956;28;20051;-71
2021/07/05 00:13:35;;;;;;;11.32;6.38;;;;;;;14.79;80.63;94586.38;5090246;28;20048;-71
2021/07/05 00:16:03;;;;;;;10.23;6.60;;;;;;;14.70;80.95;94583.50;5088448;28;20035;-71
2021/07/05 00:18:29;;;;;;;10.25;7.72;;;;;;;14.65;80.79;94570.38;5088523;28;20044;-71
2021/07/05 00:20:56;;;;;;;7.97;6.10;;;;;;;14.67;81.24;94576.16;5088494;28;20053;-71
2021/07/05 00:23:23;;;;;;;11.10;6.07;;;;;;;14.78;80.11;94584.00;5087341;28;20067;-72
2021/07/05 00:25:50;;;;;;;9.27;6.40;;;;;;;14.89;79.53;94583.75;5088807;28;20047;-71
2021/07/05 00:28:17;;;;;;;11.05;7.00;;;;;;;14.90;79.09;94582.69;5087814;28;20048;-71
2021/07/05 00:30:44;;;;;;;10.75;6.13;;;;;;;14.85;79.08;94574.81;5088048;28;20133;-71
2021/07/05 00:33:11;;;;;;;10.05;6.45;;;;;;;14.80;79.47;94569.63;5088451;28;20542;-71
2021/07/05 00:35:38;;;;;;;9.73;5.47;;;;;;;14.66;80.00;94571.97;5087771;28;20036;-71
2021/07/05 00:38:05;;;;;;;10.73;6.45;;;;;;;14.63;78.90;94572.47;5088074;28;20093;-71
2021/07/05 00:40:32;;;;;;;8.20;6.22;;;;;;;14.49;79.58;94566.16;5086224;28;20047;-71
2021/07/05 00:43:00;;;;;;;8.32;6.22;;;;;;;14.29;80.60;94566.94;5087318;28;20505;-70
2021/07/05 00:45:28;;;;;;;8.88;6.03;;;;;;;14.27;81.02;94575.03;5088079;28;20074;-71
2021/07/05 00:47:55;;;;;;;7.90;6.32;;;;;;;14.11;81.76;94555.13;5089546;28;20040;-71
2021/07/05 00:50:25;;;;;;;8.15;7.15;;;;;;;14.17;82.77;94559.34;5086586;28;20448;-71
2021/07/05 00:52:54;;;;;;;9.63;7.65;;;;;;;14.09;83.19;94557.22;5088230;28;20048;-72
2021/07/05 00:55:22;;;;;;;9.10;6.65;;;;;;;14.09;83.67;94559.81;5089890;28;20062;-70
2021/07/05 00:57:48;;;;;;;8.45;7.00;;;;;;;14.11;84.09;94555.91;5087193;28;20040;-71
2021/07/05 01:00:19;;;;;;;8.00;6.57;;;;;;;14.08;84.13;94550.38;5088088;28;20055;-71
2021/07/05 01:02:46;;;;;;;10.50;7.32;;;;;;;14.11;84.17;94547.25;5087429;28;20055;-70
2021/07/05 01:05:14;;;;;;;12.93;7.10;;;;;;;14.19;83.47;94546.75;5086963;28;20093;-71
2021/07/05 01:07:43;;;;;;;8.10;6.15;;;;;;;14.19;83.76;94536.28;5086834;28;20040;-71
2021/07/05 01:10:11;;;;;;;9.23;8.18;;;;;;;14.31;82.89;94539.44;5086002;28;20032;-71
2021/07/05 01:12:41;;;;;;;8.25;6.43;;;;;;;14.27;83.08;94525.28;5088355;28;20055;-71
2021/07/05 01:15:11;;;;;;;8.60;6.85;;;;;;;14.39;82.08;94534.72;5089068;28;20039;-71
2021/07/05 01:17:39;;;;;;;11.70;7.03;;;;;;;14.52;81.33;94545.47;5086796;28;20047;-71
2021/07/05 01:20:08;;;;;;;8.10;7.13;;;;;;;14.66;80.62;94537.91;5087795;28;20048;-71
2021/07/05 01:22:35;;;;;;;12.88;8.13;;;;;;;14.78;79.92;94542.06;5089424;28;20059;-71
2021/07/05 01:25:04;;;;;;;11.77;8.32;;;;;;;14.64;81.64;94553.09;5086181;28;20055;-71
2021/07/05 01:27:31;;;;;;;8.95;7.53;;;;;;;14.32;82.83;94538.38;5070272;28;20502;-71
2021/07/05 01:29:57;;;;;;;16.25;7.75;;;;;;;14.27;83.12;94548.84;5085742;28;20085;-71
2021/07/05 01:32:24;;;;;;;10.65;6.72;;;;;;;14.08;83.54;94550.38;5086852;28;20110;-72
2021/07/05 01:34:51;;;;;;;9.75;7.65;;;;;;;14.17;83.25;94554.09;5088676;28;20047;-72
2021/07/05 01:37:18;;;;;;;12.45;7.00;;;;;;;14.22;82.57;94556.69;5088207;28;20109;-71
2021/07/05 01:39:45;;;;;;;9.48;6.63;;;;;;;14.16;81.93;94542.03;5069569;28;20044;-71
2021/07/05 01:42:12;;;;;;;7.53;6.45;;;;;;;14.21;81.59;94549.13;5086562;28;20402;-71
2021/07/05 01:44:38;;;;;;;9.32;6.70;;;;;;;14.26;81.76;94557.78;5090585;28;20047;-70
2021/07/05 01:47:06;;;;;;;8.93;7.35;;;;;;;14.29;81.13;94554.59;5089164;28;20056;-71
2021/07/05 01:49:33;;;;;;;11.93;6.35;;;;;;;14.30;81.07;94558.81;5087179;28;20059;-71
2021/07/05 01:51:59;;;;;;;9.45;7.22;;;;;;;14.28;80.86;94545.19;5087450;28;20047;-71
2021/07/05 01:54:26;;;;;;;7.97;7.05;;;;;;;14.33;80.89;94547.81;5088722;28;20044;-71
2021/07/05 01:56:53;;;;;;;8.45;6.90;;;;;;;14.33;80.51;94558.31;5089651;28;20036;-71
2021/07/05 01:59:35;;;;;;;9.23;6.60;;;;;;;14.23;80.23;94558.28;5087043;28;20040;-71
2021/07/05 02:02:05;;;;;;;9.45;6.50;;;;;;;14.08;80.92;94563.47;5088103;28;20048;-71
2021/07/05 02:04:31;;;;;;;9.68;7.00;;;;;;;13.93;80.99;94559.78;5088076;28;20422;-71
2021/07/05 02:06:58;;;;;;;9.13;6.38;;;;;;;13.84;81.29;94561.31;5086286;28;20514;-71
2021/07/05 02:09:25;;;;;;;8.20;6.13;;;;;;;13.83;81.74;94566.81;5088354;28;20043;-71
2021/07/05 02:11:52;;;;;;;8.45;6.50;;;;;;;13.83;81.88;94564.19;5086785;28;20044;-71
2021/07/05 02:14:18;;;;;;;7.97;6.68;;;;;;;13.89;81.66;94555.34;5087325;28;20097;-72
2021/07/05 02:16:45;;;;;;;11.30;6.60;;;;;;;13.95;80.68;94562.94;5089729;28;20044;-72
2021/07/05 02:19:12;;;;;;;10.45;7.55;;;;;;;13.96;80.86;94555.88;5107388;27;20055;-71
2021/07/05 02:21:39;;;;;;;11.52;7.32;;;;;;;13.91;81.43;94546.16;5092095;28;20520;-71
2021/07/05 02:24:06;;;;;;;10.80;7.25;;;;;;;14.02;81.53;94546.97;5089261;28;20047;-71
2021/07/05 02:26:32;;;;;;;11.20;7.00;;;;;;;13.91;81.11;94556.63;5092122;28;20040;-71
2021/07/05 02:28:59;;;;;;;14.13;9.18;;;;;;;13.66;82.26;94548.72;5090720;28;20044;-71
2021/07/05 02:31:26;;;;;;;9.35;7.63;;;;;;;13.65;82.85;94547.94;5090434;28;20047;-71
2021/07/05 02:33:53;;;;;;;8.80;7.25;;;;;;;13.70;81.89;94544.53;5088088;28;20051;-71
2021/07/05 02:36:20;;;;;;;15.10;7.50;;;;;;;13.81;82.03;94548.78;5089112;28;20040;-71
2021/07/05 02:38:48;;;;;;;15.40;8.30;;;;;;;13.80;82.00;94544.56;5092022;28;20036;-71
2021/07/05 02:41:14;;;;;;;13.23;8.40;;;;;;;13.64;82.14;94545.56;5091697;28;20040;-71
2021/07/05 02:43:42;;;;;;;12.52;8.75;;;;;;;13.58;82.69;94548.16;5090621;28;20520;-71
2021/07/05 02:46:08;;;;;;;10.50;7.43;;;;;;;13.52;82.99;94549.19;5092275;28;20065;-71
2021/07/05 02:48:36;;;;;;;12.00;8.85;;;;;;;13.55;83.49;94548.66;5090811;28;20564;-71
2021/07/05 02:51:05;;;;;;;11.82;8.68;;;;;;;13.60;83.67;94555.75;5090197;28;20106;-71
2021/07/05 02:53:32;;;;;;;11.90;8.52;;;;;;;13.48;83.68;94542.09;5089313;28;20040;-71
2021/07/05 02:56:00;;;;;;;12.60;9.27;;;;;;;13.63;83.41;94559.69;5094194;28;20040;-72
2021/07/05 02:58:27;;;;;;;13.55;10.60;;;;;;;13.68;83.58;94551.84;5090642;28;20405;-72
2021/07/05 03:00:57;;;;;;;14.80;10.40;;;;;;;13.69;83.90;94550.81;5073949;28;20040;-70
2021/07/05 03:03:25;;;;;;;16.17;10.82;;;;;;;13.73;83.29;94554.50;5090423;28;22038;-72
2021/07/05 03:05:53;;;;;;;16.88;10.57;;;;;;;13.75;82.50;94557.63;5090816;28;20044;-71
2021/07/05 03:08:20;;;;;;;14.43;10.38;;;;;;;13.71;82.93;94557.38;5093257;28;20085;-71
2021/07/05 03:10:47;;;;;;;18.10;11.48;;;;;;;13.66;82.71;94549.50;5087841;28;20536;-71
2021/07/05 03:13:16;;;;;;;14.85;10.43;;;;;;;13.76;82.40;94559.22;5091621;28;20437;-71
2021/07/05 03:15:44;;;;;;;18.55;11.95;;;;;;;13.80;82.66;94560.28;5089952;28;20040;-71
2021/07/05 03:18:12;;;;;;;25.60;15.00;;;;;;;13.80;82.80;94560.28;5089811;28;20460;-72
2021/07/05 03:20:44;;;;;;;19.15;13.98;;;;;;;13.76;83.48;94564.47;5088258;28;20406;-71
2021/07/05 03:23:14;;;;;;;21.85;14.73;;;;;;;13.68;85.05;94563.09;5087412;28;20044;-71
2021/07/05 03:25:41;;;;;;;21.13;15.23;;;;;;;13.68;84.94;94563.09;5072934;28;20055;-71
2021/07/05 03:28:10;;;;;;;20.63;14.93;;;;;;;13.70;84.62;94568.91;5090444;28;20052;-71
2021/07/05 03:30:39;;;;;;;23.48;15.73;;;;;;;13.77;85.26;94560.78;5089462;28;20094;-71
2021/07/05 03:33:07;;;;;;;18.15;14.68;;;;;;;13.87;86.25;94566.06;5086668;28;20101;-71
2021/07/05 03:35:35;;;;;;;26.02;16.40;;;;;;;13.85;87.43;94562.13;5088143;28;20043;-72
2021/07/05 03:38:03;;;;;;;22.10;16.13;;;;;;;13.92;87.32;94563.47;5089423;28;20040;-72
2021/07/05 03:40:33;;;;;;;27.02;20.20;;;;;;;13.99;87.46;94565.03;5089523;28;20048;-72
2021/07/05 03:43:01;;;;;;;31.20;20.17;;;;;;;14.05;87.55;94550.94;5089822;28;20050;-71
2021/07/05 03:45:29;;;;;;;25.25;18.42;;;;;;;14.16;86.69;94552.50;5087996;28;20044;-72
2021/07/05 03:47:58;;;;;;;27.55;17.60;;;;;;;14.22;86.38;94556.69;5090717;28;20055;-71
2021/07/05 03:50:26;;;;;;;24.67;18.05;;;;;;;14.28;86.00;94547.81;5090194;28;20044;-72
2021/07/05 03:52:53;;;;;;;25.27;17.80;;;;;;;14.42;86.27;94561.19;5086321;28;20048;-72
2021/07/05 03:55:28;;;;;;;23.50;17.27;;;;;;;14.56;85.13;94553.59;5087758;28;20050;-72
2021/07/05 03:57:55;;;;;;;26.80;18.92;;;;;;;14.69;84.76;94555.72;5089885;28;20052;-72
2021/07/05 04:00:25;;;;;;;24.83;17.48;;;;;;;14.70;85.35;94551.25;5086812;28;20051;-72
2021/07/05 04:02:52;;;;;;;29.48;14.15;;;;;;;14.53;86.45;94554.09;5090106;28;20114;-72
2021/07/05 04:05:19;;;;;;;18.30;12.05;;;;;;;14.50;85.51;94541.53;5091366;28;20097;-72
2021/07/05 04:07:46;;;;;;;17.45;12.45;;;;;;;14.38;86.25;94543.63;5088732;28;20036;-71
2021/07/05 04:10:14;;;;;;;18.65;12.00;;;;;;;14.37;86.07;94539.41;5091312;28;20035;-71
2021/07/05 04:12:42;;;;;;;18.05;13.35;;;;;;;14.43;86.19;94535.78;5091005;28;20069;-72
2021/07/05 04:15:10;;;;;;;34.15;27.02;;;;;;;14.48;85.53;94543.63;5104517;27;20039;-72
2021/07/05 04:17:37;;;;;;;35.45;27.15;;;;;;;14.28;86.30;94524.25;5086373;28;20047;-72
2021/07/05 04:20:07;;;;;;;38.55;29.10;;;;;;;14.36;86.36;94545.72;5088924;28;20122;-72
2021/07/05 04:22:34;;;;;;;40.28;29.25;;;;;;;14.32;86.24;94556.72;5089356;28;20497;-71
2021/07/05 04:25:01;;;;;;;42.35;29.67;;;;;;;14.46;84.34;94558.84;5090374;28;20039;-71
2021/07/05 04:27:27;;;;;;;33.58;25.98;;;;;;;14.49;85.18;94555.69;5089334;28;20044;-72
2021/07/05 04:29:54;;;;;;;30.70;21.83;;;;;;;14.53;84.95;94538.38;5090442;28;20481;-72
2021/07/05 04:32:21;;;;;;;31.40;20.55;;;;;;;14.65;84.80;94538.94;5089026;28;20042;-72
2021/07/05 04:34:49;;;;;;;29.80;18.95;;;;;;;14.74;85.50;94530.53;5088078;28;20448;-72
2021/07/05 04:37:17;;;;;;;27.83;19.42;;;;;;;14.80;86.19;94546.00;5088002;28;20040;-72
2021/07/05 04:39:44;;;;;;;21.88;17.35;;;;;;;14.93;85.35;94544.69;5087923;28;20059;-71
2021/07/05 04:42:11;;;;;;;19.83;15.25;;;;;;;15.08;85.01;94542.03;5091053;28;20523;-72
2021/07/05 04:44:38;;;;;;;27.63;16.23;;;;;;;15.20;84.72;94538.34;5089488;28;20036;-72
2021/07/05 04:47:04;;;;;;;25.55;15.23;;;;;;;15.37;85.29;94541.41;5088445;28;20573;-72
2021/07/05 04:49:32;;;;;;;24.27;16.55;;;;;;;15.49;85.15;94535.88;5094876;28;20039;-72
2021/07/05 04:51:59;;;;;;;20.08;16.20;;;;;;;15.65;84.85;94540.00;5089588;28;20032;-72
2021/07/05 04:54:26;;;;;;;25.80;16.08;;;;;;;15.71;84.17;94534.75;5088306;28;20043;-72
2021/07/05 04:56:53;;;;;;;22.42;15.15;;;;;;;15.90;83.37;94548.06;5090601;28;20119;-71
2021/07/05 04:59:19;;;;;;;21.30;14.70;;;;;;;16.02;81.43;94543.25;5089707;28;20043;-72
2021/07/05 05:01:46;;;;;;;18.95;12.93;;;;;;;16.18;80.79;94536.84;5094903;28;20039;-73
2021/07/05 05:04:14;;;;;;;15.10;12.27;;;;;;;16.37;80.01;94534.38;5096370;28;20035;-71
2021/07/05 05:06:42;;;;;;;16.35;11.05;;;;;;;16.61;79.54;94539.69;5094181;28;20410;-72
2021/07/05 05:09:10;;;;;;;15.88;10.93;;;;;;;16.87;79.89;94539.53;5095897;28;20425;-72
2021/07/05 05:11:38;;;;;;;13.10;10.50;;;;;;;17.11;79.67;94530.88;5093241;28;20552;-72
2021/07/05 05:14:05;;;;;;;14.63;10.43;;;;;;;17.34;77.54;94534.56;5092268;28;20131;-73
2021/07/05 05:16:33;;;;;;;12.32;9.57;;;;;;;17.36;75.12;94533.22;5087604;28;20097;-74
2021/07/05 05:19:00;;;;;;;10.63;9.25;;;;;;;17.42;75.04;94520.00;5092244;28;20421;-73
2021/07/05 05:21:27;;;;;;;14.43;8.85;;;;;;;17.53;74.47;94526.72;5096050;28;20173;-73
2021/07/05 05:23:54;;;;;;;14.45;9.50;;;;;;;17.53;72.94;94532.00;5092843;28;20040;-72
2021/07/05 05:26:21;;;;;;;15.30;9.95;;;;;;;17.53;73.86;94532.00;5089072;28;20066;-72
2021/07/05 05:28:48;;;;;;;13.60;9.80;;;;;;;17.61;72.84;94544.53;5087770;28;20032;-72
2021/07/05 05:31:15;;;;;;;12.45;9.65;;;;;;;17.54;73.08;94536.19;5088165;28;20425;-71
2021/07/05 05:33:42;;;;;;;14.65;10.35;;;;;;;17.57;73.58;94540.88;5085298;28;20047;-71
2021/07/05 05:36:09;;;;;;;14.23;9.32;;;;;;;17.73;72.99;94531.72;5087998;28;20047;-71
2021/07/05 05:38:37;;;;;;;12.20;9.00;;;;;;;17.83;72.44;94540.59;5088170;28;20043;-71
2021/07/05 05:41:04;;;;;;;13.75;8.73;;;;;;;17.97;71.34;94541.50;5088898;28;20035;-71
2021/07/05 05:43:32;;;;;;;10.88;8.68;;;;;;;17.92;71.53;94528.38;5092075;28;20036;-72
2021/07/05 05:46:02;;;;;;;20.58;14.23;;;;;;;18.25;69.55;94545.03;5088160;28;20040;-72
2021/07/05 05:48:30;;;;;;;12.85;9.05;;;;;;;18.42;69.89;94525.28;5090348;28;20043;-72
2021/07/05 05:50:57;;;;;;;12.82;8.80;;;;;;;18.61;69.18;94527.91;5090158;28;20039;-71
2021/07/05 05:53:27;;;;;;;15.77;8.73;;;;;;;18.78;68.77;94533.41;5088196;28;20036;-71
2021/07/05 05:55:54;;;;;;;14.73;9.20;;;;;;;18.95;67.70;94532.13;5091915;28;20089;-71
2021/07/05 05:58:20;;;;;;;12.85;8.55;;;;;;;19.03;66.01;94528.78;5089906;28;20038;-72
2021/07/05 06:00:47;;;;;;;11.13;7.78;;;;;;;19.27;67.33;94526.78;5091978;28;20036;-72
2021/07/05 06:03:14;;;;;;;11.90;8.27;;;;;;;19.48;67.58;94523.72;5097114;28;20047;-72
2021/07/05 06:05:41;;;;;;;10.60;7.97;;;;;;;19.66;65.92;94514.94;5090844;28;20033;-72
2021/07/05 06:08:08;;;;;;;12.35;8.40;;;;;;;19.90;64.81;94511.28;5091151;28;20047;-72
2021/07/05 06:10:35;;;;;;;12.40;8.05;;;;;;;20.17;62.65;94522.88;5091451;28;20052;-72
2021/07/05 06:13:02;;;;;;;11.75;7.68;;;;;;;20.29;63.78;94515.19;5091844;28;20052;-72
2021/07/05 06:15:29;;;;;;;10.57;7.20;;;;;;;20.24;61.70;94502.09;5091569;28;20697;-72
2021/07/05 06:18:00;;;;;;;9.98;6.60;;;;;;;20.35;62.03;94502.63;5095274;28;20029;-72
2021/07/05 06:20:28;;;;;;;10.98;7.65;;;;;;;20.52;61.71;94508.03;5092240;28;20028;-72
2021/07/05 06:23:17;;;;;;;9.65;7.80;;;;;;;20.66;60.96;94518.59;5088170;28;20032;-72
2021/07/05 06:25:44;;;;;;;10.95;6.20;;;;;;;20.69;61.30;94507.41;5070629;28;20051;-72
2021/07/05 06:28:11;;;;;;;12.13;6.72;;;;;;;20.76;59.08;94515.69;5089169;28;20040;-72
2021/07/05 06:30:39;;;;;;;8.60;7.32;;;;;;;20.85;60.08;94520.25;5087397;28;20055;-71
2021/07/05 06:33:06;;;;;;;8.18;7.15;;;;;;;20.89;59.97;94510.63;5094375;28;20062;-71
2021/07/05 06:35:33;;;;;;;11.20;7.72;;;;;;;20.87;63.29;94512.78;5093049;28;20044;-71
2021/07/05 06:38:00;;;;;;;11.20;6.30;;;;;;;20.93;62.67;94506.28;5091702;28;20036;-72
2021/07/05 06:40:27;;;;;;;13.35;7.38;;;;;;;21.16;61.50;94513.09;5091649;28;20055;-72
2021/07/05 06:42:54;;;;;;;11.95;7.47;;;;;;;21.19;60.92;94506.38;5070232;28;20048;-72
2021/07/05 06:45:21;;;;;;;17.17;7.18;;;;;;;21.25;60.08;94504.38;5085656;28;20040;-72
2021/07/05 06:47:48;;;;;;;16.70;7.10;;;;;;;21.34;59.73;94502.56;5085730;28;20040;-72
2021/07/05 06:50:15;;;;;;;14.93;8.00;;;;;;;21.37;59.94;94501.94;5085996;28;20036;-72
2021/07/05 06:52:43;;;;;;;13.68;7.47;;;;;;;21.50;59.72;94501.09;5086008;28;20493;-72
2021/07/05 06:55:12;;;;;;;13.57;7.40;;;;;;;21.56;59.37;94497.19;5086501;28;20040;-72
2021/07/05 06:57:40;;;;;;;8.73;6.85;;;;;;;21.74;60.76;94497.22;5087216;28;20032;-72
2021/07/05 07:00:14;;;;;;;11.88;7.88;;;;;;;21.88;58.61;94487.28;5085642;28;20044;-72
2021/07/05 07:02:41;;;;;;;19.73;8.30;;;;;;;21.88;56.75;94481.97;5090439;28;20042;-72
2021/07/05 07:05:12;;;;;;;12.50;8.32;;;;;;;21.95;56.70;94498.19;5090405;28;20032;-72
2021/07/05 07:07:43;;;;;;;9.02;7.40;;;;;;;22.07;55.82;94488.84;5088114;28;20036;-73
2021/07/05 07:10:12;;;;;;;10.13;7.13;;;;;;;22.31;56.18;94494.50;5104613;28;20044;-73
2021/07/05 07:12:42;;;;;;;8.90;6.63;;;;;;;22.46;53.52;94484.50;5090015;28;20052;-72
2021/07/05 07:15:10;;;;;;;11.98;6.35;;;;;;;22.59;53.96;94478.22;5088782;28;20043;-74
2021/07/05 07:17:39;;;;;;;10.77;7.50;;;;;;;22.76;53.82;94479.25;5089023;28;20040;-73
2021/07/05 07:20:10;;;;;;;11.98;6.45;;;;;;;22.85;56.14;94470.19;5088317;28;20044;-73
2021/07/05 07:22:38;;;;;;;10.32;6.68;;;;;;;23.11;53.91;94471.22;5102720;28;20059;-73
2021/07/05 07:25:07;;;;;;;19.25;8.02;;;;;;;23.29;53.66;94478.03;5088233;28;20881;-73
2021/07/05 07:27:34;;;;;;;11.10;6.95;;;;;;;23.38;55.39;94481.41;5090241;28;20040;-73
2021/07/05 07:30:04;;;;;;;10.55;6.65;;;;;;;23.37;56.52;94485.19;5090061;28;20044;-73
2021/07/05 07:32:42;;;;;;;10.75;8.18;;;;;;;23.53;54.45;94484.63;5087556;28;20406;-74
2021/07/05 07:35:11;;;;;;;14.13;6.90;;;;;;;23.60;52.89;94482.22;5087409;28;20055;-73
2021/07/05 07:37:39;;;;;;;8.68;7.78;;;;;;;23.55;52.81;94479.75;5088177;28;20385;-73
2021/07/05 07:43:06;;;;;;;10.05;6.82;;;;;;;23.59;52.60;94486.00;5033979;28;20048;-75
2021/07/05 07:45:33;;;;;;;8.07;6.68;;;;;;;23.56;52.74;94483.97;5088377;28;20127;-73
2021/07/05 07:48:00;;;;;;;9.55;7.78;;;;;;;23.54;52.87;94484.31;5088200;28;20794;-73
2021/07/05 07:50:27;;;;;;;10.88;7.28;;;;;;;23.40;54.69;94473.91;5090191;28;20426;-74
2021/07/05 07:52:56;;;;;;;10.20;8.02;;;;;;;23.42;52.64;94455.75;5089834;28;20042;-74
2021/07/05 07:55:23;;;;;;;11.50;7.35;;;;;;;23.47;53.18;94478.72;5088230;28;20032;-74
2021/07/05 07:57:50;;;;;;;8.77;7.03;;;;;;;23.60;53.60;94463.63;5090051;28;21703;-74
2021/07/05 08:00:17;;;;;;;13.50;7.45;;;;;;;23.67;53.33;94466.56;5088554;28;20047;-74
2021/07/05 08:02:45;;;;;;;10.18;7.38;;;;;;;23.81;52.37;94466.34;5087960;28;20051;-73
2021/07/05 08:05:13;;;;;;;8.60;6.88;;;;;;;23.94;52.87;94464.53;5089844;28;20047;-74
2021/07/05 08:07:41;;;;;;;7.40;6.68;;;;;;;24.19;52.98;94463.53;5091096;28;20036;-74
2021/07/05 08:10:10;;;;;;;14.50;5.60;;;;;;;24.42;49.89;94455.22;5088228;28;20044;-74
2021/07/05 08:12:40;;;;;;;7.75;5.63;;;;;;;24.74;49.63;94450.19;5086291;28;20063;-74
2021/07/05 08:15:08;;;;;;;12.85;6.43;;;;;;;25.00;48.35;94448.03;5087520;28;20054;-74
2021/07/05 08:17:35;;;;;;;6.25;5.65;;;;;;;25.22;46.71;94451.38;5089085;28;20032;-75
2021/07/05 08:20:04;;;;;;;8.80;5.60;;;;;;;25.49;45.50;94449.94;5087883;28;20036;-74
2021/07/05 08:22:33;;;;;;;7.82;5.28;;;;;;;25.63;45.38;94454.94;5087782;28;20044;-74
2021/07/05 08:25:02;;;;;;;8.48;5.53;;;;;;;25.75;43.98;94457.59;5087579;28;20036;-74
2021/07/05 08:27:29;;;;;;;5.93;5.32;;;;;;;25.92;45.04;94455.78;5088851;28;20040;-75
2021/07/05 08:29:56;;;;;;;7.13;5.80;;;;;;;26.17;45.69;94455.72;5070437;28;20054;-76
2021/07/05 08:32:23;;;;;;;8.52;5.78;;;;;;;26.24;44.19;94446.03;5087200;28;20039;-75
2021/07/05 08:34:50;;;;;;;8.00;6.28;;;;;;;26.39;42.64;94452.50;5082376;28;20048;-76
2021/07/05 08:37:17;;;;;;;9.02;5.60;;;;;;;26.54;43.30;94455.56;5083761;28;20059;-74
2021/07/05 08:39:44;;;;;;;9.55;5.43;;;;;;;26.66;41.59;94442.19;5087901;28;20036;-75
2021/07/05 08:42:12;;;;;;;12.95;5.18;;;;;;;26.83;40.74;94441.06;5085997;28;20060;-75
2021/07/05 08:44:40;;;;;;;8.43;5.63;;;;;;;27.09;41.83;94440.56;5067469;28;20828;-75
2021/07/05 08:47:09;;;;;;;8.30;5.70;;;;;;;27.35;42.04;94449.97;5086295;28;20123;-75
2021/07/05 08:49:36;;;;;;;9.50;6.43;;;;;;;27.36;41.06;94454.22;5082748;28;20127;-75
2021/07/05 08:52:03;;;;;;;8.85;5.57;;;;;;;27.55;40.34;94440.91;5086359;28;20472;-75
2021/07/05 08:54:30;;;;;;;10.18;5.80;;;;;;;27.72;40.37;94444.31;5067179;28;20065;-75
2021/07/05 08:56:57;;;;;;;7.65;5.57;;;;;;;27.97;40.14;94450.22;5084947;28;20070;-75
2021/07/05 08:59:23;;;;;;;9.90;6.35;;;;;;;28.03;40.45;94449.56;5085032;28;20039;-75
2021/07/05 09:01:51;;;;;;;12.60;6.43;;;;;;;28.20;38.31;94436.91;5086563;28;20134;-76
2021/07/05 09:04:18;;;;;;;7.28;5.72;;;;;;;28.31;39.33;94432.53;5082106;28;20047;-75
2021/07/05 09:07:06;;;;;;;13.50;6.18;;;;;;;28.53;38.67;94443.63;5086304;28;20048;-75
2021/07/05 09:09:35;;;;;;;11.40;6.07;;;;;;;28.56;37.36;94437.59;5084638;28;20040;-75
2021/07/05 09:12:05;;;;;;;7.57;5.45;;;;;;;28.56;36.50;94442.97;5086171;28;20142;-76
2021/07/05 09:14:33;;;;;;;9.52;5.30;;;;;;;28.70;36.34;94432.50;5066377;28;20035;-75
2021/07/05 09:17:09;;;;;;;8.45;5.95;;;;;;;28.61;36.93;94445.31;5087105;28;20056;-75
2021/07/05 09:19:38;;;;;;;10.25;5.82;;;;;;;28.86;37.56;94440.41;5084562;28;20059;-76
2021/07/05 09:22:07;;;;;;;8.10;5.47;;;;;;;28.87;35.73;94435.84;5086778;28;20054;-76
2021/07/05 09:24:37;;;;;;;8.90;5.00;;;;;;;28.82;34.06;94444.16;5085724;28;20040;-77
2021/07/05 09:27:33;;;;;;;6.03;4.60;;;;;;;28.89;34.78;94446.97;5084829;28;20062;-75
2021/07/05 09:30:09;;;;;;;9.20;4.00;;;;;;;28.72;34.15;94440.94;5086035;28;20040;-76
2021/07/05 09:32:36;;;;;;;6.55;5.05;;;;;;;28.70;34.14;94432.50;5085205;28;20056;-76
2021/07/05 09:35:14;;;;;;;6.35;4.35;;;;;;;29.10;34.97;94417.84;5085308;28;20032;-77
2021/07/05 09:37:53;;;;;;;9.45;4.55;;;;;;;29.25;34.74;94412.72;5085928;28;20052;-76
2021/07/05 09:40:20;;;;;;;10.20;4.97;;;;;;;29.41;34.27;94415.25;5084642;28;20066;-76
2021/07/05 09:42:50;;;;;;;5.63;3.70;;;;;;;29.23;32.94;94415.00;5085194;28;20048;-76
2021/07/05 09:45:22;;;;;;;10.57;3.63;;;;;;;29.22;33.43;94413.44;5084313;28;20043;-76
2021/07/05 09:48:11;;;;;;;7.63;3.63;;;;;;;29.39;33.71;94417.50;5087056;28;20453;-76
2021/07/05 09:50:37;;;;;;;8.93;3.78;;;;;;;29.74;33.24;94407.28;5082107;28;20449;-77
2021/07/05 09:53:44;;;;;;;8.65;4.10;;;;;;;30.05;33.84;94399.22;5085331;28;20059;-76
2021/07/05 09:56:30;;;;;;;8.00;4.15;;;;;;;30.57;32.69;94419.00;5085967;28;20040;-77
2021/07/05 09:59:18;;;;;;;9.18;4.28;;;;;;;30.57;32.67;94413.63;5068045;28;20046;-77
2021/07/05 10:01:53;;;;;;;7.85;4.30;;;;;;;30.63;33.24;94406.78;5086121;28;20055;-76
2021/07/05 10:04:32;;;;;;;6.97;3.97;;;;;;;30.83;32.42;94409.28;5081031;28;20058;-76
2021/07/05 10:07:02;;;;;;;8.95;3.67;;;;;;;31.05;32.04;94404.88;5085002;28;20056;-77
2021/07/05 10:09:53;;;;;;;9.68;3.55;;;;;;;30.74;31.45;94412.25;5084619;28;20038;-77
2021/07/05 10:12:29;;;;;;;6.13;3.42;;;;;;;30.45;33.13;94400.44;5083048;28;20044;-77
2021/07/05 10:15:08;;;;;;;6.43;4.07;;;;;;;30.12;33.02;94402.00;5083982;28;20401;-77
2021/07/05 10:17:42;;;;;;;7.85;4.18;;;;;;;30.54;33.23;94402.84;5087682;28;20083;-77
2021/07/05 10:20:16;;;;;;;9.90;4.00;;;;;;;30.75;32.94;94402.28;5084385;28;20105;-77
2021/07/05 10:22:45;;;;;;;8.52;4.40;;;;;;;30.87;31.85;94393.94;5080913;28;20043;-77
2021/07/05 10:25:13;;;;;;;6.47;4.03;;;;;;;30.85;33.08;94385.47;5086732;28;20047;-76
2021/07/05 10:27:40;;;;;;;9.45;4.75;;;;;;;31.35;33.40;94391.25;5087166;28;20082;-77
2021/07/05 10:30:10;;;;;;;11.07;4.18;;;;;;;31.54;32.39;94384.06;5088362;28;20036;-77
2021/07/05 10:32:38;;;;;;;8.40;4.55;;;;;;;32.06;30.14;94383.97;5085464;28;20105;-76
2021/07/05 10:35:08;;;;;;;12.93;4.82;;;;;;;32.34;30.07;94367.09;5086210;28;20040;-77
2021/07/05 10:37:50;;;;;;;14.60;4.47;;;;;;;32.36;29.73;94370.97;5089842;28;20418;-77
2021/07/05 10:40:18;;;;;;;7.70;4.88;;;;;;;32.31;30.48;94375.94;5090872;28;20049;-76
2021/07/05 10:42:55;;;;;;;6.97;4.55;;;;;;;32.42;30.54;94374.03;5087545;28;20047;-78
2021/07/05 10:45:38;;;;;;;4.78;4.25;;;;;;;32.50;30.46;94378.31;5087387;28;20044;-77
2021/07/05 10:48:07;;;;;;;8.90;4.15;;;;;;;31.98;30.96;94377.72;5071011;28;20036;-77
2021/07/05 10:50:45;;;;;;;6.75;4.38;;;;;;;31.82;30.56;94365.38;5089160;28;20408;-77
2021/07/05 10:53:14;;;;;;;4.97;3.92;;;;;;;31.83;30.52;94366.91;5089557;28;20040;-76
2021/07/05 10:55:50;;;;;;;6.22;4.60;;;;;;;31.90;30.66;94373.47;5088520;28;20475;-77
2021/07/05 10:58:21;;;;;;;5.63;3.97;;;;;;;32.07;32.12;94375.50;5089776;28;20127;-76
2021/07/05 11:00:53;;;;;;;8.68;4.00;;;;;;;31.98;30.67;94369.66;5103972;27;20078;-76
2021/07/05 11:03:40;;;;;;;7.93;4.55;;;;;;;31.98;31.62;94369.66;5087537;28;20039;-76
2021/07/05 11:06:19;;;;;;;8.68;4.22;;;;;;;32.33;29.61;94363.63;5087466;28;20048;-75
2021/07/05 11:08:51;;;;;;;9.57;4.07;;;;;;;32.84;29.81;94367.16;5088193;28;20405;-74
2021/07/05 11:11:30;;;;;;;8.13;4.13;;;;;;;33.32;29.96;94364.06;5069421;28;20048;-76
2021/07/05 11:14:13;;;;;;;6.55;4.03;;;;;;;32.94;28.88;94363.72;5088852;28;20443;-75
2021/07/05 11:16:49;;;;;;;9.05;4.28;;;;;;;32.73;29.00;94366.41;5103006;28;20040;-75
2021/07/05 11:19:46;;;;;;;4.70;3.58;;;;;;;32.67;29.90;94373.34;5088617;28;20040;-76
2021/07/05 11:22:26;;;;;;;7.53;4.32;;;;;;;32.49;29.57;94367.91;5090470;28;20040;-74
2021/07/05 11:25:12;;;;;;;6.97;4.63;;;;;;;32.51;30.46;94365.59;5088566;28;20048;-75
2021/07/05 11:27:47;;;;;;;6.60;3.53;;;;;;;33.03;29.03;94351.78;5088546;28;20044;-73
2021/07/05 11:30:18;;;;;;;11.40;4.97;;;;;;;32.70;29.05;94351.78;5088646;28;20054;-73
2021/07/05 11:32:48;;;;;;;13.75;4.13;;;;;;;32.60;30.18;94357.94;5070025;28;20044;-73
2021/07/05 11:35:43;;;;;;;6.85;3.97;;;;;;;32.87;29.35;94350.22;5087747;28;20047;-74
2021/07/05 11:38:25;;;;;;;6.20;3.83;;;;;;;32.99;29.46;94356.38;5087424;28;20433;-74
2021/07/05 11:41:10;;;;;;;7.43;3.53;;;;;;;32.90;29.07;94348.66;5087042;28;20036;-74